Elsenborn, Belgium
Current Conditions -  °F | °C
As of 4:43 PM on Saturday 25 Oct 2014 (Local Time) from EBLB Reporting Station
Broken Clouds Broken Clouds  
Wind Chill: 11°   Ceiling: 300
Heat Index: 11°   Visibility: 4mi
Dew Point: 10°   Wind: 3mph
Humidity: 94%   Direction: 210°SSW
Pressure: 30.15"   Gusts: NA
Location:  50.46°N, 6.22°E
Report Text: EBLB 251443Z AUTO 21003KT 7000 FEW001/// BKN003/// BKN006/// 11/10 Q1021 YLO
Loading
Personal Weather Stations






























Interactive Weather Map
Tropical Storm Tracking
New forecast layout! Learn more

10-Day Weather Forecast

Advertisements
Track Severe Weather on mobile